sensor_id;sensor_type;location;lat;lon;timestamp;temperature;humidity
1447;DHT22;717;51.522;7.266;2022-12-07T00:01:47;10.00;99.90
1447;DHT22;717;51.522;7.266;2022-12-07T00:04:17;10.10;99.90
1447;DHT22;717;51.522;7.266;2022-12-07T00:06:50;10.10;99.90
1447;DHT22;717;51.522;7.266;2022-12-07T00:09:19;10.10;99.90
1447;DHT22;717;51.522;7.266;2022-12-07T00:11:49;10.10;99.90
1447;DHT22;717;51.522;7.266;2022-12-07T00:14:19;10.10;99.90
1447;DHT22;717;51.522;7.266;2022-12-07T00:16:51;10.10;99.90
1447;DHT22;717;51.522;7.266;2022-12-07T00:19:20;10.10;99.90
1447;DHT22;717;51.522;7.266;2022-12-07T00:21:49;10.10;99.90
1447;DHT22;717;51.522;7.266;2022-12-07T00:24:17;10.10;99.90
1447;DHT22;717;51.522;7.266;2022-12-07T00:26:46;10.10;99.90
1447;DHT22;717;51.522;7.266;2022-12-07T00:29:17;10.10;99.90
1447;DHT22;717;51.522;7.266;2022-12-07T00:31:46;10.10;99.90
1447;DHT22;717;51.522;7.266;2022-12-07T00:34:19;10.10;99.90
1447;DHT22;717;51.522;7.266;2022-12-07T00:36:48;10.10;99.90
1447;DHT22;717;51.522;7.266;2022-12-07T00:39:17;10.10;99.90
1447;DHT22;717;51.522;7.266;2022-12-07T00:41:46;10.10;99.90
1447;DHT22;717;51.522;7.266;2022-12-07T00:44:15;10.10;99.90
1447;DHT22;717;51.522;7.266;2022-12-07T00:46:43;10.10;99.90
1447;DHT22;717;51.522;7.266;2022-12-07T00:49:12;10.10;99.90
1447;DHT22;717;51.522;7.266;2022-12-07T00:51:43;10.10;99.90
1447;DHT22;717;51.522;7.266;2022-12-07T00:54:12;10.20;99.90
1447;DHT22;717;51.522;7.266;2022-12-07T00:56:41;10.20;99.90
1447;DHT22;717;51.522;7.266;2022-12-07T00:59:12;10.30;99.90
1447;DHT22;717;51.522;7.266;2022-12-07T01:01:42;10.30;99.90
1447;DHT22;717;51.522;7.266;2022-12-07T01:04:11;10.30;99.90
1447;DHT22;717;51.522;7.266;2022-12-07T01:06:39;10.30;99.90
1447;DHT22;717;51.522;7.266;2022-12-07T01:09:11;10.30;99.90
1447;DHT22;717;51.522;7.266;2022-12-07T01:11:40;10.30;99.90
1447;DHT22;717;51.522;7.266;2022-12-07T01:14:09;10.30;99.90
1447;DHT22;717;51.522;7.266;2022-12-07T01:16:38;10.30;99.90
1447;DHT22;717;51.522;7.266;2022-12-07T01:19:07;10.30;99.90
1447;DHT22;717;51.522;7.266;2022-12-07T01:21:36;10.30;99.90
1447;DHT22;717;51.522;7.266;2022-12-07T01:24:07;10.20;99.90
1447;DHT22;717;51.522;7.266;2022-12-07T01:26:40;10.20;99.90
1447;DHT22;717;51.522;7.266;2022-12-07T01:29:09;10.20;99.90
1447;DHT22;717;51.522;7.266;2022-12-07T01:31:37;10.30;99.90
1447;DHT22;717;51.522;7.266;2022-12-07T01:34:06;10.20;99.90
1447;DHT22;717;51.522;7.266;2022-12-07T01:36:36;10.20;99.90
1447;DHT22;717;51.522;7.266;2022-12-07T01:39:06;10.20;99.90
1447;DHT22;717;51.522;7.266;2022-12-07T01:41:36;10.20;99.90
1447;DHT22;717;51.522;7.266;2022-12-07T01:44:18;10.20;99.90
1447;DHT22;717;51.522;7.266;2022-12-07T01:46:47;10.20;99.90
1447;DHT22;717;51.522;7.266;2022-12-07T01:49:21;10.20;99.90
1447;DHT22;717;51.522;7.266;2022-12-07T01:51:54;10.30;99.90
1447;DHT22;717;51.522;7.266;2022-12-07T01:54:25;10.30;99.90
1447;DHT22;717;51.522;7.266;2022-12-07T01:56:57;10.20;99.90
1447;DHT22;717;51.522;7.266;2022-12-07T01:59:28;10.20;99.90
1447;DHT22;717;51.522;7.266;2022-12-07T02:01:57;10.20;99.90
1447;DHT22;717;51.522;7.266;2022-12-07T02:04:26;10.20;99.90
1447;DHT22;717;51.522;7.266;2022-12-07T02:06:55;10.20;99.90
1447;DHT22;717;51.522;7.266;2022-12-07T02:09:24;10.30;99.90
1447;DHT22;717;51.522;7.266;2022-12-07T02:11:53;10.30;99.90
1447;DHT22;717;51.522;7.266;2022-12-07T02:14:23;10.30;99.90
1447;DHT22;717;51.522;7.266;2022-12-07T02:17:03;10.30;99.90
1447;DHT22;717;51.522;7.266;2022-12-07T02:23:21;10.30;99.90
1447;DHT22;717;51.522;7.266;2022-12-07T02:26:02;10.30;99.90
1447;DHT22;717;51.522;7.266;2022-12-07T02:28:35;10.40;99.90
1447;DHT22;717;51.522;7.266;2022-12-07T02:31:16;10.30;99.90
1447;DHT22;717;51.522;7.266;2022-12-07T02:33:51;10.30;99.90
1447;DHT22;717;51.522;7.266;2022-12-07T02:36:27;10.30;99.90
1447;DHT22;717;51.522;7.266;2022-12-07T02:39:01;10.30;99.90
1447;DHT22;717;51.522;7.266;2022-12-07T02:41:36;10.30;99.90
1447;DHT22;717;51.522;7.266;2022-12-07T02:44:11;10.30;99.90
1447;DHT22;717;51.522;7.266;2022-12-07T02:46:48;10.30;99.90
1447;DHT22;717;51.522;7.266;2022-12-07T02:49:18;10.30;99.90
1447;DHT22;717;51.522;7.266;2022-12-07T02:51:47;10.30;99.90
1447;DHT22;717;51.522;7.266;2022-12-07T02:54:17;10.30;99.90
1447;DHT22;717;51.522;7.266;2022-12-07T02:56:48;10.40;99.90
1447;DHT22;717;51.522;7.266;2022-12-07T02:59:29;10.40;99.90
1447;DHT22;717;51.522;7.266;2022-12-07T03:02:12;10.40;99.90
1447;DHT22;717;51.522;7.266;2022-12-07T03:04:54;10.40;99.90
1447;DHT22;717;51.522;7.266;2022-12-07T03:07:31;10.30;99.90
1447;DHT22;717;51.522;7.266;2022-12-07T03:10:08;10.30;99.90
1447;DHT22;717;51.522;7.266;2022-12-07T03:12:45;10.30;99.90
1447;DHT22;717;51.522;7.266;2022-12-07T03:15:20;10.30;99.90
1447;DHT22;717;51.522;7.266;2022-12-07T03:17:56;10.30;99.90
1447;DHT22;717;51.522;7.266;2022-12-07T03:20:26;10.30;99.90
1447;DHT22;717;51.522;7.266;2022-12-07T03:22:57;10.40;99.90
1447;DHT22;717;51.522;7.266;2022-12-07T03:25:28;10.40;99.90
1447;DHT22;717;51.522;7.266;2022-12-07T03:27:59;10.40;99.90
1447;DHT22;717;51.522;7.266;2022-12-07T03:30:30;10.50;99.90
1447;DHT22;717;51.522;7.266;2022-12-07T03:33:08;10.50;99.90
1447;DHT22;717;51.522;7.266;2022-12-07T03:35:42;10.40;99.90
1447;DHT22;717;51.522;7.266;2022-12-07T03:38:18;10.40;99.90
1447;DHT22;717;51.522;7.266;2022-12-07T03:40:50;10.40;99.90
1447;DHT22;717;51.522;7.266;2022-12-07T03:43:21;10.40;99.90
1447;DHT22;717;51.522;7.266;2022-12-07T03:45:56;10.40;99.90
1447;DHT22;717;51.522;7.266;2022-12-07T03:48:35;10.30;99.90
1447;DHT22;717;51.522;7.266;2022-12-07T03:51:11;10.30;99.90
1447;DHT22;717;51.522;7.266;2022-12-07T03:53:46;10.20;99.90
1447;DHT22;717;51.522;7.266;2022-12-07T03:56:17;10.20;99.90
1447;DHT22;717;51.522;7.266;2022-12-07T03:58:46;10.20;99.90
1447;DHT22;717;51.522;7.266;2022-12-07T04:01:17;10.20;99.90
1447;DHT22;717;51.522;7.266;2022-12-07T04:03:48;10.20;99.90
1447;DHT22;717;51.522;7.266;2022-12-07T04:06:17;10.10;99.90
1447;DHT22;717;51.522;7.266;2022-12-07T04:08:45;10.10;99.90
1447;DHT22;717;51.522;7.266;2022-12-07T04:11:14;10.10;99.90
1447;DHT22;717;51.522;7.266;2022-12-07T04:13:43;10.10;99.90
1447;DHT22;717;51.522;7.266;2022-12-07T04:16:24;10.20;99.90
1447;DHT22;717;51.522;7.266;2022-12-07T04:18:55;10.10;99.90
1447;DHT22;717;51.522;7.266;2022-12-07T04:21:24;10.20;99.90
1447;DHT22;717;51.522;7.266;2022-12-07T04:23:52;10.10;99.90
1447;DHT22;717;51.522;7.266;2022-12-07T04:26:21;10.10;99.90
1447;DHT22;717;51.522;7.266;2022-12-07T04:28:49;10.20;99.90
1447;DHT22;717;51.522;7.266;2022-12-07T04:31:18;10.20;99.90
1447;DHT22;717;51.522;7.266;2022-12-07T04:33:47;10.20;99.90
1447;DHT22;717;51.522;7.266;2022-12-07T04:36:18;10.20;99.90
1447;DHT22;717;51.522;7.266;2022-12-07T04:38:48;10.20;99.90
1447;DHT22;717;51.522;7.266;2022-12-07T04:41:16;10.20;99.90
1447;DHT22;717;51.522;7.266;2022-12-07T04:43:53;10.20;99.90
1447;DHT22;717;51.522;7.266;2022-12-07T04:46:23;10.20;99.90
1447;DHT22;717;51.522;7.266;2022-12-07T04:48:52;10.20;99.90
1447;DHT22;717;51.522;7.266;2022-12-07T04:51:25;10.20;99.90
1447;DHT22;717;51.522;7.266;2022-12-07T04:53:55;10.20;99.90
1447;DHT22;717;51.522;7.266;2022-12-07T04:56:24;10.20;99.90
1447;DHT22;717;51.522;7.266;2022-12-07T04:58:54;10.20;99.90
1447;DHT22;717;51.522;7.266;2022-12-07T05:01:23;10.20;99.90
1447;DHT22;717;51.522;7.266;2022-12-07T05:03:52;10.20;99.90
1447;DHT22;717;51.522;7.266;2022-12-07T05:06:23;10.10;99.90
1447;DHT22;717;51.522;7.266;2022-12-07T05:08:53;10.10;99.90
1447;DHT22;717;51.522;7.266;2022-12-07T05:11:21;10.00;99.90
1447;DHT22;717;51.522;7.266;2022-12-07T05:14:04;10.00;99.90
1447;DHT22;717;51.522;7.266;2022-12-07T05:16:33;10.00;99.90
1447;DHT22;717;51.522;7.266;2022-12-07T05:19:02;9.90;99.90
1447;DHT22;717;51.522;7.266;2022-12-07T05:21:33;9.90;99.90
1447;DHT22;717;51.522;7.266;2022-12-07T05:24:02;9.90;99.90
1447;DHT22;717;51.522;7.266;2022-12-07T05:26:31;9.90;99.90
1447;DHT22;717;51.522;7.266;2022-12-07T05:29:00;9.90;99.90
1447;DHT22;717;51.522;7.266;2022-12-07T05:31:29;9.90;99.90
1447;DHT22;717;51.522;7.266;2022-12-07T05:33:58;9.90;99.90
1447;DHT22;717;51.522;7.266;2022-12-07T05:36:26;9.90;99.90
1447;DHT22;717;51.522;7.266;2022-12-07T05:39:00;9.90;99.90
1447;DHT22;717;51.522;7.266;2022-12-07T05:41:28;9.80;99.90
1447;DHT22;717;51.522;7.266;2022-12-07T05:44:09;9.80;99.90
1447;DHT22;717;51.522;7.266;2022-12-07T05:46:38;9.80;99.90
1447;DHT22;717;51.522;7.266;2022-12-07T05:49:07;9.80;99.90
1447;DHT22;717;51.522;7.266;2022-12-07T05:51:35;9.70;99.90
1447;DHT22;717;51.522;7.266;2022-12-07T05:54:06;9.70;99.90
1447;DHT22;717;51.522;7.266;2022-12-07T05:56:35;9.70;99.90
1447;DHT22;717;51.522;7.266;2022-12-07T05:59:04;9.70;99.90
1447;DHT22;717;51.522;7.266;2022-12-07T06:01:45;9.70;99.90
1447;DHT22;717;51.522;7.266;2022-12-07T06:04:13;9.70;99.90
1447;DHT22;717;51.522;7.266;2022-12-07T06:06:42;9.70;99.90
1447;DHT22;717;51.522;7.266;2022-12-07T06:09:15;9.70;99.90
1447;DHT22;717;51.522;7.266;2022-12-07T06:11:44;9.70;99.90
1447;DHT22;717;51.522;7.266;2022-12-07T06:14:25;9.70;99.90
1447;DHT22;717;51.522;7.266;2022-12-07T06:16:54;9.70;99.90
1447;DHT22;717;51.522;7.266;2022-12-07T06:19:23;9.70;99.90
1447;DHT22;717;51.522;7.266;2022-12-07T06:21:53;9.70;99.90
1447;DHT22;717;51.522;7.266;2022-12-07T06:24:24;9.70;99.90
1447;DHT22;717;51.522;7.266;2022-12-07T06:26:53;9.60;99.90
1447;DHT22;717;51.522;7.266;2022-12-07T06:29:22;9.60;99.90
1447;DHT22;717;51.522;7.266;2022-12-07T06:31:51;9.60;99.90
1447;DHT22;717;51.522;7.266;2022-12-07T06:34:21;9.50;99.90
1447;DHT22;717;51.522;7.266;2022-12-07T06:36:50;9.50;99.90
1447;DHT22;717;51.522;7.266;2022-12-07T06:39:24;9.40;99.90
1447;DHT22;717;51.522;7.266;2022-12-07T06:41:54;9.40;99.90
1447;DHT22;717;51.522;7.266;2022-12-07T06:44:23;9.40;99.90
1447;DHT22;717;51.522;7.266;2022-12-07T06:46:51;9.40;99.90
1447;DHT22;717;51.522;7.266;2022-12-07T06:49:20;9.30;99.90
1447;DHT22;717;51.522;7.266;2022-12-07T06:51:49;9.30;99.90
1447;DHT22;717;51.522;7.266;2022-12-07T06:54:17;9.30;99.90
1447;DHT22;717;51.522;7.266;2022-12-07T06:56:48;9.30;99.90
1447;DHT22;717;51.522;7.266;2022-12-07T06:59:17;9.30;99.90
1447;DHT22;717;51.522;7.266;2022-12-07T07:01:46;9.30;99.90
1447;DHT22;717;51.522;7.266;2022-12-07T07:04:14;9.30;99.90
1447;DHT22;717;51.522;7.266;2022-12-07T07:06:43;9.30;99.90
1447;DHT22;717;51.522;7.266;2022-12-07T07:09:13;9.20;99.90
1447;DHT22;717;51.522;7.266;2022-12-07T07:11:41;9.20;99.90
1447;DHT22;717;51.522;7.266;2022-12-07T07:14:13;9.10;99.90
1447;DHT22;717;51.522;7.266;2022-12-07T07:16:44;9.10;99.90
1447;DHT22;717;51.522;7.266;2022-12-07T07:19:13;9.20;99.90
1447;DHT22;717;51.522;7.266;2022-12-07T07:21:42;9.20;99.90
1447;DHT22;717;51.522;7.266;2022-12-07T07:24:11;9.20;99.90
1447;DHT22;717;51.522;7.266;2022-12-07T07:26:39;9.20;99.90
1447;DHT22;717;51.522;7.266;2022-12-07T07:29:08;9.20;99.90
1447;DHT22;717;51.522;7.266;2022-12-07T07:31:39;9.30;99.90
1447;DHT22;717;51.522;7.266;2022-12-07T07:34:08;9.30;99.90
1447;DHT22;717;51.522;7.266;2022-12-07T07:36:36;9.30;99.90
1447;DHT22;717;51.522;7.266;2022-12-07T07:39:05;9.30;99.90
1447;DHT22;717;51.522;7.266;2022-12-07T07:41:34;9.30;99.90
1447;DHT22;717;51.522;7.266;2022-12-07T07:44:02;9.20;99.90
1447;DHT22;717;51.522;7.266;2022-12-07T07:46:31;9.20;99.90
1447;DHT22;717;51.522;7.266;2022-12-07T07:49:03;9.20;99.90
1447;DHT22;717;51.522;7.266;2022-12-07T07:51:31;9.10;99.90
1447;DHT22;717;51.522;7.266;2022-12-07T07:54:00;9.10;99.90
1447;DHT22;717;51.522;7.266;2022-12-07T07:56:29;9.10;99.90
1447;DHT22;717;51.522;7.266;2022-12-07T07:58:57;9.10;99.90
1447;DHT22;717;51.522;7.266;2022-12-07T08:01:27;9.10;99.90
1447;DHT22;717;51.522;7.266;2022-12-07T08:03:55;9.00;99.90
1447;DHT22;717;51.522;7.266;2022-12-07T08:06:27;9.00;99.90
1447;DHT22;717;51.522;7.266;2022-12-07T08:08:55;9.00;99.90
1447;DHT22;717;51.522;7.266;2022-12-07T08:11:24;9.00;99.90
1447;DHT22;717;51.522;7.266;2022-12-07T08:13:53;9.00;99.90
1447;DHT22;717;51.522;7.266;2022-12-07T08:16:21;9.00;99.90
1447;DHT22;717;51.522;7.266;2022-12-07T08:18:50;9.00;99.90
1447;DHT22;717;51.522;7.266;2022-12-07T08:21:19;9.00;99.90
1447;DHT22;717;51.522;7.266;2022-12-07T08:23:50;9.00;99.90
1447;DHT22;717;51.522;7.266;2022-12-07T08:26:18;9.10;99.90
1447;DHT22;717;51.522;7.266;2022-12-07T08:28:47;9.10;99.90
1447;DHT22;717;51.522;7.266;2022-12-07T08:31:17;9.20;99.90
1447;DHT22;717;51.522;7.266;2022-12-07T08:33:47;9.20;99.90
1447;DHT22;717;51.522;7.266;2022-12-07T08:36:17;9.30;99.90
1447;DHT22;717;51.522;7.266;2022-12-07T08:38:50;9.30;99.90
1447;DHT22;717;51.522;7.266;2022-12-07T08:41:18;9.30;99.90
1447;DHT22;717;51.522;7.266;2022-12-07T08:43:47;9.30;99.90
1447;DHT22;717;51.522;7.266;2022-12-07T08:46:19;9.30;99.90
1447;DHT22;717;51.522;7.266;2022-12-07T08:48:52;9.40;99.90
1447;DHT22;717;51.522;7.266;2022-12-07T08:51:22;9.40;99.90
1447;DHT22;717;51.522;7.266;2022-12-07T08:53:54;9.50;99.90
1447;DHT22;717;51.522;7.266;2022-12-07T08:56:24;9.50;99.90
1447;DHT22;717;51.522;7.266;2022-12-07T08:58:53;9.60;99.90
1447;DHT22;717;51.522;7.266;2022-12-07T09:01:22;9.60;99.90
1447;DHT22;717;51.522;7.266;2022-12-07T09:03:50;9.60;99.90
1447;DHT22;717;51.522;7.266;2022-12-07T09:06:19;9.70;99.90
1447;DHT22;717;51.522;7.266;2022-12-07T09:08:55;9.70;99.90
1447;DHT22;717;51.522;7.266;2022-12-07T09:11:25;9.70;99.90
1447;DHT22;717;51.522;7.266;2022-12-07T09:13:53;9.80;99.90
1447;DHT22;717;51.522;7.266;2022-12-07T09:16:22;9.80;99.90
1447;DHT22;717;51.522;7.266;2022-12-07T09:18:51;9.80;99.90
1447;DHT22;717;51.522;7.266;2022-12-07T09:21:20;9.70;99.90
1447;DHT22;717;51.522;7.266;2022-12-07T09:23:48;9.80;99.90
1447;DHT22;717;51.522;7.266;2022-12-07T09:26:19;9.80;99.90
1447;DHT22;717;51.522;7.266;2022-12-07T09:28:48;9.70;99.90
1447;DHT22;717;51.522;7.266;2022-12-07T09:31:17;9.70;99.90
1447;DHT22;717;51.522;7.266;2022-12-07T09:33:46;9.70;99.90
1447;DHT22;717;51.522;7.266;2022-12-07T09:36:15;9.70;99.90
1447;DHT22;717;51.522;7.266;2022-12-07T09:38:43;9.70;99.90
1447;DHT22;717;51.522;7.266;2022-12-07T09:41:12;9.70;99.90
1447;DHT22;717;51.522;7.266;2022-12-07T09:43:44;9.80;99.90
1447;DHT22;717;51.522;7.266;2022-12-07T09:46:15;9.80;99.90
1447;DHT22;717;51.522;7.266;2022-12-07T09:48:45;9.80;99.90
1447;DHT22;717;51.522;7.266;2022-12-07T09:51:17;9.80;99.90
1447;DHT22;717;51.522;7.266;2022-12-07T09:53:47;9.90;99.90
1447;DHT22;717;51.522;7.266;2022-12-07T09:56:17;9.90;99.90
1447;DHT22;717;51.522;7.266;2022-12-07T09:58:51;9.90;99.90
1447;DHT22;717;51.522;7.266;2022-12-07T10:01:23;9.90;99.90
1447;DHT22;717;51.522;7.266;2022-12-07T10:03:54;9.80;99.90
1447;DHT22;717;51.522;7.266;2022-12-07T10:06:23;9.80;99.90
1447;DHT22;717;51.522;7.266;2022-12-07T10:08:52;9.80;99.90
1447;DHT22;717;51.522;7.266;2022-12-07T10:11:20;9.70;99.90
1447;DHT22;717;51.522;7.266;2022-12-07T10:13:52;9.80;99.90
1447;DHT22;717;51.522;7.266;2022-12-07T10:16:37;9.80;99.90
1447;DHT22;717;51.522;7.266;2022-12-07T10:19:20;9.90;99.90
1447;DHT22;717;51.522;7.266;2022-12-07T10:22:04;10.00;99.90
1447;DHT22;717;51.522;7.266;2022-12-07T10:24:33;10.00;99.90
1447;DHT22;717;51.522;7.266;2022-12-07T10:27:03;10.00;99.90
1447;DHT22;717;51.522;7.266;2022-12-07T10:29:36;10.00;99.90
1447;DHT22;717;51.522;7.266;2022-12-07T10:32:28;10.00;99.90
1447;DHT22;717;51.522;7.266;2022-12-07T10:35:20;10.00;99.90
1447;DHT22;717;51.522;7.266;2022-12-07T10:37:51;10.00;99.90
1447;DHT22;717;51.522;7.266;2022-12-07T10:40:30;9.90;99.90
1447;DHT22;717;51.522;7.266;2022-12-07T10:43:15;10.00;99.90
1447;DHT22;717;51.522;7.266;2022-12-07T10:46:09;10.10;99.90
1447;DHT22;717;51.522;7.266;2022-12-07T10:48:46;10.10;99.90
1447;DHT22;717;51.522;7.266;2022-12-07T10:51:24;10.20;99.90
1447;DHT22;717;51.522;7.266;2022-12-07T10:54:02;10.20;99.90
1447;DHT22;717;51.522;7.266;2022-12-07T10:56:47;10.30;99.90
1447;DHT22;717;51.522;7.266;2022-12-07T10:59:51;10.30;99.90
1447;DHT22;717;51.522;7.266;2022-12-07T11:02:36;10.40;99.90
1447;DHT22;717;51.522;7.266;2022-12-07T11:05:17;10.40;99.90
1447;DHT22;717;51.522;7.266;2022-12-07T11:07:58;10.40;99.90
1447;DHT22;717;51.522;7.266;2022-12-07T11:10:35;10.30;99.90
1447;DHT22;717;51.522;7.266;2022-12-07T11:13:22;10.30;99.90
1447;DHT22;717;51.522;7.266;2022-12-07T11:21:58;10.40;99.90
1447;DHT22;717;51.522;7.266;2022-12-07T11:24:35;10.40;99.90
1447;DHT22;717;51.522;7.266;2022-12-07T11:27:18;10.50;99.90
1447;DHT22;717;51.522;7.266;2022-12-07T11:30:12;10.50;99.90
1447;DHT22;717;51.522;7.266;2022-12-07T11:32:51;10.60;99.90
1447;DHT22;717;51.522;7.266;2022-12-07T11:35:34;10.60;99.90
1447;DHT22;717;51.522;7.266;2022-12-07T11:38:11;10.70;99.90
1447;DHT22;717;51.522;7.266;2022-12-07T11:40:43;10.70;99.80
1447;DHT22;717;51.522;7.266;2022-12-07T11:43:21;10.70;99.80
1447;DHT22;717;51.522;7.266;2022-12-07T11:45:57;10.70;99.70
1447;DHT22;717;51.522;7.266;2022-12-07T11:48:33;10.80;99.70
1447;DHT22;717;51.522;7.266;2022-12-07T11:51:07;10.80;99.70
1447;DHT22;717;51.522;7.266;2022-12-07T11:53:39;10.80;99.70
1447;DHT22;717;51.522;7.266;2022-12-07T11:56:12;10.80;99.70
1447;DHT22;717;51.522;7.266;2022-12-07T11:58:48;10.80;99.60
1447;DHT22;717;51.522;7.266;2022-12-07T12:01:29;10.80;99.60
1447;DHT22;717;51.522;7.266;2022-12-07T12:04:06;10.80;99.50
1447;DHT22;717;51.522;7.266;2022-12-07T12:06:39;10.80;99.50
1447;DHT22;717;51.522;7.266;2022-12-07T12:09:12;10.80;99.50
1447;DHT22;717;51.522;7.266;2022-12-07T12:12:01;10.80;99.40
1447;DHT22;717;51.522;7.266;2022-12-07T12:14:42;10.90;99.30
1447;DHT22;717;51.522;7.266;2022-12-07T12:17:32;10.90;99.50
1447;DHT22;717;51.522;7.266;2022-12-07T12:20:14;10.90;99.40
1447;DHT22;717;51.522;7.266;2022-12-07T12:22:53;10.90;99.30
1447;DHT22;717;51.522;7.266;2022-12-07T12:25:25;10.80;99.10
1447;DHT22;717;51.522;7.266;2022-12-07T12:27:57;10.80;99.40
1447;DHT22;717;51.522;7.266;2022-12-07T12:30:32;10.80;99.30
1447;DHT22;717;51.522;7.266;2022-12-07T12:33:04;10.80;99.20
1447;DHT22;717;51.522;7.266;2022-12-07T12:35:35;10.80;99.20
1447;DHT22;717;51.522;7.266;2022-12-07T12:38:31;10.80;99.20
1447;DHT22;717;51.522;7.266;2022-12-07T12:41:02;10.80;99.10
1447;DHT22;717;51.522;7.266;2022-12-07T12:43:48;10.90;99.10
1447;DHT22;717;51.522;7.266;2022-12-07T12:49:34;10.90;99.00
1447;DHT22;717;51.522;7.266;2022-12-07T12:55:49;11.00;99.10
1447;DHT22;717;51.522;7.266;2022-12-07T12:58:36;10.90;98.90
1447;DHT22;717;51.522;7.266;2022-12-07T13:04:28;10.90;98.90
1447;DHT22;717;51.522;7.266;2022-12-07T13:06:59;10.90;98.90
1447;DHT22;717;51.522;7.266;2022-12-07T13:09:30;10.90;98.90
1447;DHT22;717;51.522;7.266;2022-12-07T13:12:04;10.90;98.90
1447;DHT22;717;51.522;7.266;2022-12-07T13:14:57;10.90;98.90
1447;DHT22;717;51.522;7.266;2022-12-07T13:20:46;11.00;98.60
1447;DHT22;717;51.522;7.266;2022-12-07T13:23:18;10.90;98.70
1447;DHT22;717;51.522;7.266;2022-12-07T13:26:08;10.90;98.70
1447;DHT22;717;51.522;7.266;2022-12-07T13:28:44;10.80;98.70
1447;DHT22;717;51.522;7.266;2022-12-07T13:31:30;10.80;98.90
1447;DHT22;717;51.522;7.266;2022-12-07T13:34:01;10.90;98.80
1447;DHT22;717;51.522;7.266;2022-12-07T13:36:33;10.90;98.70
1447;DHT22;717;51.522;7.266;2022-12-07T13:39:16;10.90;98.70
1447;DHT22;717;51.522;7.266;2022-12-07T13:41:50;10.90;98.70
1447;DHT22;717;51.522;7.266;2022-12-07T13:44:24;11.00;98.60
1447;DHT22;717;51.522;7.266;2022-12-07T13:46:57;10.90;98.60
1447;DHT22;717;51.522;7.266;2022-12-07T13:49:29;11.00;98.60
1447;DHT22;717;51.522;7.266;2022-12-07T13:52:14;11.00;98.60
1447;DHT22;717;51.522;7.266;2022-12-07T13:54:45;10.90;98.50
1447;DHT22;717;51.522;7.266;2022-12-07T13:57:15;10.90;98.60
1447;DHT22;717;51.522;7.266;2022-12-07T13:59:47;11.00;98.70
1447;DHT22;717;51.522;7.266;2022-12-07T14:02:25;11.00;98.60
1447;DHT22;717;51.522;7.266;2022-12-07T14:05:07;11.00;98.50
1447;DHT22;717;51.522;7.266;2022-12-07T14:07:55;11.00;98.50
1447;DHT22;717;51.522;7.266;2022-12-07T14:10:26;10.90;98.40
1447;DHT22;717;51.522;7.266;2022-12-07T14:12:56;10.90;98.40
1447;DHT22;717;51.522;7.266;2022-12-07T14:15:29;10.80;98.50
1447;DHT22;717;51.522;7.266;2022-12-07T14:18:00;10.80;98.40
1447;DHT22;717;51.522;7.266;2022-12-07T14:20:32;10.80;98.50
1447;DHT22;717;51.522;7.266;2022-12-07T14:23:02;10.70;98.30
1447;DHT22;717;51.522;7.266;2022-12-07T14:25:45;10.70;98.40
1447;DHT22;717;51.522;7.266;2022-12-07T14:28:26;10.70;98.40
1447;DHT22;717;51.522;7.266;2022-12-07T14:30:58;10.70;98.40
1447;DHT22;717;51.522;7.266;2022-12-07T14:33:28;10.70;98.40
1447;DHT22;717;51.522;7.266;2022-12-07T14:35:57;10.70;98.50
1447;DHT22;717;51.522;7.266;2022-12-07T14:38:26;10.70;98.50
1447;DHT22;717;51.522;7.266;2022-12-07T14:40:55;10.80;98.30
1447;DHT22;717;51.522;7.266;2022-12-07T14:43:45;10.80;98.20
1447;DHT22;717;51.522;7.266;2022-12-07T14:46:17;10.80;98.30
1447;DHT22;717;51.522;7.266;2022-12-07T14:48:46;10.80;98.20
1447;DHT22;717;51.522;7.266;2022-12-07T14:51:14;10.80;98.30
1447;DHT22;717;51.522;7.266;2022-12-07T14:53:46;10.80;98.20
1447;DHT22;717;51.522;7.266;2022-12-07T14:56:16;10.70;98.10
1447;DHT22;717;51.522;7.266;2022-12-07T14:58:44;10.70;98.20
1447;DHT22;717;51.522;7.266;2022-12-07T15:01:17;10.60;98.20
1447;DHT22;717;51.522;7.266;2022-12-07T15:03:46;10.60;98.20
1447;DHT22;717;51.522;7.266;2022-12-07T15:06:16;10.50;98.20
1447;DHT22;717;51.522;7.266;2022-12-07T15:08:45;10.50;98.30
1447;DHT22;717;51.522;7.266;2022-12-07T15:11:15;10.40;98.30
1447;DHT22;717;51.522;7.266;2022-12-07T15:13:44;10.30;98.40
1447;DHT22;717;51.522;7.266;2022-12-07T15:16:28;10.30;98.50
1447;DHT22;717;51.522;7.266;2022-12-07T15:18:56;10.20;98.50
1447;DHT22;717;51.522;7.266;2022-12-07T15:21:25;10.30;98.50
1447;DHT22;717;51.522;7.266;2022-12-07T15:23:54;10.30;98.60
1447;DHT22;717;51.522;7.266;2022-12-07T15:26:22;10.20;98.50
1447;DHT22;717;51.522;7.266;2022-12-07T15:28:52;10.20;98.50
1447;DHT22;717;51.522;7.266;2022-12-07T15:31:21;10.20;98.50
1447;DHT22;717;51.522;7.266;2022-12-07T15:33:52;10.10;98.50
1447;DHT22;717;51.522;7.266;2022-12-07T15:36:23;10.10;98.60
1447;DHT22;717;51.522;7.266;2022-12-07T15:38:52;10.10;98.70
1447;DHT22;717;51.522;7.266;2022-12-07T15:41:21;10.10;98.60
1447;DHT22;717;51.522;7.266;2022-12-07T15:43:50;10.10;98.60
1447;DHT22;717;51.522;7.266;2022-12-07T15:46:33;10.10;98.70
1447;DHT22;717;51.522;7.266;2022-12-07T15:49:09;10.00;98.70
1447;DHT22;717;51.522;7.266;2022-12-07T15:51:39;10.10;98.70
1447;DHT22;717;51.522;7.266;2022-12-07T15:54:08;10.00;98.70
1447;DHT22;717;51.522;7.266;2022-12-07T15:56:40;10.00;98.80
1447;DHT22;717;51.522;7.266;2022-12-07T15:59:08;10.00;98.80
1447;DHT22;717;51.522;7.266;2022-12-07T16:01:37;10.10;98.80
1447;DHT22;717;51.522;7.266;2022-12-07T16:04:08;10.10;98.80
1447;DHT22;717;51.522;7.266;2022-12-07T16:06:37;10.10;98.80
1447;DHT22;717;51.522;7.266;2022-12-07T16:09:06;10.10;98.80
1447;DHT22;717;51.522;7.266;2022-12-07T16:11:35;10.10;98.80
1447;DHT22;717;51.522;7.266;2022-12-07T16:14:04;10.10;98.80
1447;DHT22;717;51.522;7.266;2022-12-07T16:16:33;10.10;98.80
1447;DHT22;717;51.522;7.266;2022-12-07T16:19:02;10.10;98.80
1447;DHT22;717;51.522;7.266;2022-12-07T16:21:36;10.10;98.90
1447;DHT22;717;51.522;7.266;2022-12-07T16:24:06;10.10;98.90
1447;DHT22;717;51.522;7.266;2022-12-07T16:26:36;10.10;98.90
1447;DHT22;717;51.522;7.266;2022-12-07T16:29:04;10.10;98.90
1447;DHT22;717;51.522;7.266;2022-12-07T16:31:33;10.10;98.80
1447;DHT22;717;51.522;7.266;2022-12-07T16:34:02;10.10;98.90
1447;DHT22;717;51.522;7.266;2022-12-07T16:36:31;10.00;98.80
1447;DHT22;717;51.522;7.266;2022-12-07T16:39:03;9.90;98.90
1447;DHT22;717;51.522;7.266;2022-12-07T16:41:32;9.80;99.10
1447;DHT22;717;51.522;7.266;2022-12-07T16:44:03;9.90;99.10
1447;DHT22;717;51.522;7.266;2022-12-07T16:46:33;9.80;99.20
1447;DHT22;717;51.522;7.266;2022-12-07T16:49:02;9.80;99.20
1447;DHT22;717;51.522;7.266;2022-12-07T16:51:31;9.80;99.20
1447;DHT22;717;51.522;7.266;2022-12-07T16:54:03;9.80;99.20
1447;DHT22;717;51.522;7.266;2022-12-07T16:56:32;9.80;99.20
1447;DHT22;717;51.522;7.266;2022-12-07T16:59:01;9.90;99.20
1447;DHT22;717;51.522;7.266;2022-12-07T17:01:30;9.90;99.20
1447;DHT22;717;51.522;7.266;2022-12-07T17:04:00;9.90;99.20
1447;DHT22;717;51.522;7.266;2022-12-07T17:06:29;9.90;99.20
1447;DHT22;717;51.522;7.266;2022-12-07T17:08:59;9.90;99.20
1447;DHT22;717;51.522;7.266;2022-12-07T17:11:32;9.80;99.20
1447;DHT22;717;51.522;7.266;2022-12-07T17:14:01;9.80;99.20
1447;DHT22;717;51.522;7.266;2022-12-07T17:16:42;9.80;99.20
1447;DHT22;717;51.522;7.266;2022-12-07T17:19:13;9.90;99.20
1447;DHT22;717;51.522;7.266;2022-12-07T17:21:42;9.80;99.20